Robertsdale, AL (36567)

5:07 PM CST on December 27, 2014 (GMT -0600)
KALROBER4 | Change Station
CLOSE
Current Station
Personal Weather Station
Location: Robertsdale, AL
Elevation: 156 ft
Nearby Weather Stations

Elev 156 ft 30.55 °N, 87.70 °W | Updated 11 seconds ago

Rain
Rain
59.7 °F
Feels Like 59.7 °F
N
12.1
Wind Variable Wind from NW
Gusts 12.1 mph

Today
High -- | Low -- °F
--% Chance of Precip.
Yesterday
High -- | Low -- °F
Precip. -- in
6:46 AM 4:57 PM
Waxing Crescent, 41% visible
Pressure 30.11 in
Visibility 10.0 miles
Clouds Overcast 300 ft
Dew Point 60 °F
Humidity 100%
Rainfall 0.48 in
Snow Depth Not available.
UV 0 out of 12
Pollen .50 out of 12
Air Quality Not available.
Flu Activity Not available.
METAR KCQF 272255Z AUTO 08006KT 10SM RA OVC003 16/16 A3011 RMK AO2

More Conditions Fewer Conditions

Pressure 30.11 in
Visibility 10.0 miles
Clouds Overcast 300 ft
Dew Point 60 °F
Humidity 100%
Rainfall 0.48 in
Snow Depth Not available.
UV 0 out of 12
Pollen .50 out of 12
Air Quality Not available.
Flu Activity Not available.
METAR KCQF 272255Z AUTO 08006KT 10SM RA OVC003 16/16 A3011 RMK AO2

More Conditions Fewer Conditions

10-Day Weather Forecast

Almanac

Astronomy

Dec. 27, 2014 Rise Set
Actual Time
Civil Twilight
Nautical Twilight
Astronomical Twilight
Moon
Length of Visible Light
Length of Day
Tomorrow will be .
, % of the Moon is Illuminated

Today's Extremes

State Highs State Lows

Community

WunderPhotos

Upload Photos

1,781,100 photos uploaded!

WunderBlogs® & News

Nearby

Air Quality

  Air Quality AQ Index Pollutant
Not available.

Snow Depth

Station Depth Elevation

Earthquake Activity

City Distance Mag. Time & Date
Minimum magnitude displayed is 2.5.

Coastal Water Temperatures

Place Temperature

Nearby Weather Stations